sensor_id;sensor_type;location;lat;lon;timestamp;pressure;altitude;pressure_sealevel;temperature;humidity
85895;BME280;76441;49.954;8.842;2024-02-21T00:00:54;101169.22;;;7.51;77.99
85895;BME280;76441;49.954;8.842;2024-02-21T00:03:20;101163.38;;;7.53;78.13
85895;BME280;76441;49.954;8.842;2024-02-21T00:05:45;101158.63;;;7.54;78.49
85895;BME280;76441;49.954;8.842;2024-02-21T00:08:10;101158.16;;;7.45;80.26
85895;BME280;76441;49.954;8.842;2024-02-21T00:10:36;101163.88;;;7.38;81.76
85895;BME280;76441;49.954;8.842;2024-02-21T00:13:01;101164.25;;;7.30;82.02
85895;BME280;76441;49.954;8.842;2024-02-21T00:15:26;101154.59;;;7.26;82.69
85895;BME280;76441;49.954;8.842;2024-02-21T00:17:52;101159.47;;;7.19;83.88
85895;BME280;76441;49.954;8.842;2024-02-21T00:20:17;101139.19;;;7.12;84.76
85895;BME280;76441;49.954;8.842;2024-02-21T00:22:43;101144.28;;;7.15;83.97
85895;BME280;76441;49.954;8.842;2024-02-21T00:25:09;101149.50;;;7.11;85.03
85895;BME280;76441;49.954;8.842;2024-02-21T00:27:34;101146.59;;;7.06;84.46
85895;BME280;76441;49.954;8.842;2024-02-21T00:30:00;101144.03;;;7.05;86.14
85895;BME280;76441;49.954;8.842;2024-02-21T00:32:25;101159.09;;;7.04;87.19
85895;BME280;76441;49.954;8.842;2024-02-21T00:34:50;101156.78;;;7.01;87.97
85895;BME280;76441;49.954;8.842;2024-02-21T00:37:15;101151.75;;;6.91;88.13
85895;BME280;76441;49.954;8.842;2024-02-21T00:39:41;101140.84;;;6.89;89.16
85895;BME280;76441;49.954;8.842;2024-02-21T00:42:07;101134.41;;;6.89;88.75
85895;BME280;76441;49.954;8.842;2024-02-21T00:44:33;101129.91;;;6.88;89.14
85895;BME280;76441;49.954;8.842;2024-02-21T00:46:58;101120.19;;;6.91;88.28
85895;BME280;76441;49.954;8.842;2024-02-21T00:49:23;101100.66;;;6.91;86.59
85895;BME280;76441;49.954;8.842;2024-02-21T00:51:48;101103.09;;;6.87;88.23
85895;BME280;76441;49.954;8.842;2024-02-21T00:54:14;101115.09;;;6.87;88.26
85895;BME280;76441;49.954;8.842;2024-02-21T00:56:39;101118.75;;;6.88;87.90
85895;BME280;76441;49.954;8.842;2024-02-21T00:59:04;101098.72;;;6.91;87.94
85895;BME280;76441;49.954;8.842;2024-02-21T01:01:30;101086.72;;;6.91;86.68
85895;BME280;76441;49.954;8.842;2024-02-21T01:03:55;101090.72;;;6.83;87.54
85895;BME280;76441;49.954;8.842;2024-02-21T01:06:20;101092.03;;;6.80;88.22
85895;BME280;76441;49.954;8.842;2024-02-21T01:08:47;101079.31;;;6.84;87.17
85895;BME280;76441;49.954;8.842;2024-02-21T01:11:13;101076.03;;;6.87;88.08
85895;BME280;76441;49.954;8.842;2024-02-21T01:13:38;101077.00;;;6.81;88.42
85895;BME280;76441;49.954;8.842;2024-02-21T01:16:03;101069.97;;;6.79;87.70
85895;BME280;76441;49.954;8.842;2024-02-21T01:18:29;101075.78;;;6.77;88.51
85895;BME280;76441;49.954;8.842;2024-02-21T01:20:54;101070.81;;;6.79;87.68
85895;BME280;76441;49.954;8.842;2024-02-21T01:23:20;101074.31;;;6.75;88.25
85895;BME280;76441;49.954;8.842;2024-02-21T01:25:45;101064.50;;;6.72;88.66
85895;BME280;76441;49.954;8.842;2024-02-21T01:28:10;101083.78;;;6.74;87.74
85895;BME280;76441;49.954;8.842;2024-02-21T01:30:35;101083.41;;;6.70;88.34
85895;BME280;76441;49.954;8.842;2024-02-21T01:33:01;101094.09;;;6.73;87.78
85895;BME280;76441;49.954;8.842;2024-02-21T01:35:26;101084.41;;;6.76;87.40
85895;BME280;76441;49.954;8.842;2024-02-21T01:37:51;101086.94;;;6.77;88.17
85895;BME280;76441;49.954;8.842;2024-02-21T01:40:17;101084.63;;;6.74;88.34
85895;BME280;76441;49.954;8.842;2024-02-21T01:42:42;101080.50;;;6.77;87.17
85895;BME280;76441;49.954;8.842;2024-02-21T01:45:08;101085.84;;;6.78;87.11
85895;BME280;76441;49.954;8.842;2024-02-21T01:47:34;101075.78;;;6.77;86.60
85895;BME280;76441;49.954;8.842;2024-02-21T01:50:00;101077.72;;;6.77;86.94
85895;BME280;76441;49.954;8.842;2024-02-21T01:52:26;101077.97;;;6.75;86.62
85895;BME280;76441;49.954;8.842;2024-02-21T01:54:52;101072.13;;;6.77;86.68
85895;BME280;76441;49.954;8.842;2024-02-21T01:57:18;101064.00;;;6.75;86.56
85895;BME280;76441;49.954;8.842;2024-02-21T01:59:43;101059.03;;;6.77;86.37
85895;BME280;76441;49.954;8.842;2024-02-21T02:02:08;101052.84;;;6.75;86.93
85895;BME280;76441;49.954;8.842;2024-02-21T02:04:34;101052.59;;;6.77;85.60
85895;BME280;76441;49.954;8.842;2024-02-21T02:07:00;101045.31;;;6.76;85.19
85895;BME280;76441;49.954;8.842;2024-02-21T02:09:27;101044.97;;;6.72;86.53
85895;BME280;76441;49.954;8.842;2024-02-21T02:11:52;101039.13;;;6.74;85.84
85895;BME280;76441;49.954;8.842;2024-02-21T02:14:18;101041.94;;;6.74;86.47
85895;BME280;76441;49.954;8.842;2024-02-21T02:16:46;101037.69;;;6.71;86.23
85895;BME280;76441;49.954;8.842;2024-02-21T02:19:12;101036.47;;;6.67;86.42
85895;BME280;76441;49.954;8.842;2024-02-21T02:21:39;101044.22;;;6.77;85.44
85895;BME280;76441;49.954;8.842;2024-02-21T02:24:06;101037.56;;;6.78;85.96
85895;BME280;76441;49.954;8.842;2024-02-21T02:26:32;101036.09;;;6.75;85.88
85895;BME280;76441;49.954;8.842;2024-02-21T02:28:57;101031.97;;;6.78;84.96
85895;BME280;76441;49.954;8.842;2024-02-21T02:31:22;101033.69;;;6.79;85.46
85895;BME280;76441;49.954;8.842;2024-02-21T02:33:48;101023.00;;;6.76;85.20
85895;BME280;76441;49.954;8.842;2024-02-21T02:36:13;101026.53;;;6.71;85.80
85895;BME280;76441;49.954;8.842;2024-02-21T02:38:39;101022.88;;;6.71;85.57
85895;BME280;76441;49.954;8.842;2024-02-21T02:41:04;101013.28;;;6.67;84.98
85895;BME280;76441;49.954;8.842;2024-02-21T02:43:29;101020.69;;;6.61;86.02
85895;BME280;76441;49.954;8.842;2024-02-21T02:45:55;101007.84;;;6.60;85.54
85895;BME280;76441;49.954;8.842;2024-02-21T02:48:20;100997.28;;;6.62;85.13
85895;BME280;76441;49.954;8.842;2024-02-21T02:50:46;100990.63;;;6.63;85.21
85895;BME280;76441;49.954;8.842;2024-02-21T02:53:11;100990.63;;;6.63;86.00
85895;BME280;76441;49.954;8.842;2024-02-21T02:55:37;100981.88;;;6.60;85.25
85895;BME280;76441;49.954;8.842;2024-02-21T02:58:02;100986.38;;;6.61;85.19
85895;BME280;76441;49.954;8.842;2024-02-21T03:00:28;100980.53;;;6.62;85.31
85895;BME280;76441;49.954;8.842;2024-02-21T03:02:53;100986.38;;;6.61;85.73
85895;BME280;76441;49.954;8.842;2024-02-21T03:05:20;100980.88;;;6.54;86.07
85895;BME280;76441;49.954;8.842;2024-02-21T03:07:46;100985.13;;;6.56;85.92
85895;BME280;76441;49.954;8.842;2024-02-21T03:10:12;100992.50;;;6.51;85.13
85895;BME280;76441;49.954;8.842;2024-02-21T03:12:39;100995.44;;;6.56;85.26
85895;BME280;76441;49.954;8.842;2024-02-21T03:15:05;100998.94;;;6.51;85.45
85895;BME280;76441;49.954;8.842;2024-02-21T03:17:31;101002.09;;;6.43;85.42
85895;BME280;76441;49.954;8.842;2024-02-21T03:19:57;100995.78;;;6.36;85.59
85895;BME280;76441;49.954;8.842;2024-02-21T03:22:22;100984.72;;;6.30;85.81
85895;BME280;76441;49.954;8.842;2024-02-21T03:24:48;100975.75;;;6.28;87.09
85895;BME280;76441;49.954;8.842;2024-02-21T03:27:13;100955.16;;;6.29;85.95
85895;BME280;76441;49.954;8.842;2024-02-21T03:29:38;100963.16;;;6.25;85.27
85895;BME280;76441;49.954;8.842;2024-02-21T03:32:04;100970.75;;;6.18;87.15
85895;BME280;76441;49.954;8.842;2024-02-21T03:34:29;100966.88;;;6.19;86.32
85895;BME280;76441;49.954;8.842;2024-02-21T03:36:55;100951.47;;;6.16;86.28
85895;BME280;76441;49.954;8.842;2024-02-21T03:39:20;100951.94;;;6.02;86.58
85895;BME280;76441;49.954;8.842;2024-02-21T03:41:46;100940.91;;;5.95;86.90
85895;BME280;76441;49.954;8.842;2024-02-21T03:44:11;100943.72;;;5.88;87.11
85895;BME280;76441;49.954;8.842;2024-02-21T03:46:37;100949.63;;;5.99;86.94
85895;BME280;76441;49.954;8.842;2024-02-21T03:49:02;100948.28;;;6.01;86.44
85895;BME280;76441;49.954;8.842;2024-02-21T03:51:27;100945.13;;;5.98;87.74
85895;BME280;76441;49.954;8.842;2024-02-21T03:53:52;100951.56;;;5.98;87.06
85895;BME280;76441;49.954;8.842;2024-02-21T03:56:18;100944.56;;;5.89;87.16
85895;BME280;76441;49.954;8.842;2024-02-21T03:58:43;100947.34;;;5.77;87.63
85895;BME280;76441;49.954;8.842;2024-02-21T04:01:08;100949.41;;;5.82;87.60
85895;BME280;76441;49.954;8.842;2024-02-21T04:03:34;100954.22;;;5.75;87.59
85895;BME280;76441;49.954;8.842;2024-02-21T04:05:59;100953.47;;;5.68;87.31
85895;BME280;76441;49.954;8.842;2024-02-21T04:08:25;100974.34;;;5.77;87.40
85895;BME280;76441;49.954;8.842;2024-02-21T04:10:50;100966.56;;;5.67;88.31
85895;BME280;76441;49.954;8.842;2024-02-21T04:13:16;100960.66;;;5.75;88.24
85895;BME280;76441;49.954;8.842;2024-02-21T04:15:41;100958.94;;;5.74;87.37
85895;BME280;76441;49.954;8.842;2024-02-21T04:18:06;100955.56;;;5.72;88.01
85895;BME280;76441;49.954;8.842;2024-02-21T04:20:32;100963.06;;;5.72;88.09
85895;BME280;76441;49.954;8.842;2024-02-21T04:22:57;100962.59;;;5.75;88.21
85895;BME280;76441;49.954;8.842;2024-02-21T04:25:23;100955.56;;;5.72;88.53
85895;BME280;76441;49.954;8.842;2024-02-21T04:27:48;100957.75;;;5.82;87.26
85895;BME280;76441;49.954;8.842;2024-02-21T04:30:14;100948.56;;;5.81;87.66
85895;BME280;76441;49.954;8.842;2024-02-21T04:32:39;100943.22;;;5.80;87.91
85895;BME280;76441;49.954;8.842;2024-02-21T04:35:06;100937.16;;;5.83;88.11
85895;BME280;76441;49.954;8.842;2024-02-21T04:37:32;100924.47;;;5.87;86.84
85895;BME280;76441;49.954;8.842;2024-02-21T04:39:57;100918.72;;;5.70;88.45
85895;BME280;76441;49.954;8.842;2024-02-21T04:42:22;100909.66;;;5.75;87.77
85895;BME280;76441;49.954;8.842;2024-02-21T04:44:48;100892.47;;;5.78;87.71
85895;BME280;76441;49.954;8.842;2024-02-21T04:47:13;100898.03;;;5.78;87.50
85895;BME280;76441;49.954;8.842;2024-02-21T04:49:38;100889.44;;;5.79;86.98
85895;BME280;76441;49.954;8.842;2024-02-21T04:52:04;100886.72;;;5.91;86.89
85895;BME280;76441;49.954;8.842;2024-02-21T04:54:29;100882.66;;;5.87;87.36
85895;BME280;76441;49.954;8.842;2024-02-21T04:56:54;100876.97;;;5.82;87.82
85895;BME280;76441;49.954;8.842;2024-02-21T04:59:20;100870.78;;;5.80;87.41
85895;BME280;76441;49.954;8.842;2024-02-21T05:01:45;100862.41;;;5.80;87.63
85895;BME280;76441;49.954;8.842;2024-02-21T05:04:10;100862.91;;;5.77;87.11
85895;BME280;76441;49.954;8.842;2024-02-21T05:06:42;100869.22;;;5.84;87.02
85895;BME280;76441;49.954;8.842;2024-02-21T05:09:08;100865.28;;;5.91;85.98
85895;BME280;76441;49.954;8.842;2024-02-21T05:11:34;100866.75;;;5.94;85.91
85895;BME280;76441;49.954;8.842;2024-02-21T05:13:59;100863.63;;;5.84;86.51
85895;BME280;76441;49.954;8.842;2024-02-21T05:16:24;100848.00;;;5.83;86.35
85895;BME280;76441;49.954;8.842;2024-02-21T05:18:49;100851.75;;;5.77;86.58
85895;BME280;76441;49.954;8.842;2024-02-21T05:21:15;100848.25;;;5.81;87.42
85895;BME280;76441;49.954;8.842;2024-02-21T05:23:40;100848.97;;;5.88;86.37
85895;BME280;76441;49.954;8.842;2024-02-21T05:26:06;100851.59;;;5.90;85.88
85895;BME280;76441;49.954;8.842;2024-02-21T05:28:32;100851.09;;;5.93;86.42
85895;BME280;76441;49.954;8.842;2024-02-21T05:30:57;100849.84;;;5.89;86.24
85895;BME280;76441;49.954;8.842;2024-02-21T05:33:23;100855.41;;;5.89;85.96
85895;BME280;76441;49.954;8.842;2024-02-21T05:35:48;100853.09;;;5.86;86.39
85895;BME280;76441;49.954;8.842;2024-02-21T05:38:14;100856.28;;;5.89;85.41
85895;BME280;76441;49.954;8.842;2024-02-21T05:40:40;100863.34;;;5.92;85.50
85895;BME280;76441;49.954;8.842;2024-02-21T05:43:06;100874.63;;;5.97;85.39
85895;BME280;76441;49.954;8.842;2024-02-21T05:45:32;100881.16;;;5.91;85.79
85895;BME280;76441;49.954;8.842;2024-02-21T05:47:57;100875.78;;;5.89;86.36
85895;BME280;76441;49.954;8.842;2024-02-21T05:50:22;100884.06;;;5.96;84.79
85895;BME280;76441;49.954;8.842;2024-02-21T05:52:51;100881.16;;;5.91;85.70
85895;BME280;76441;49.954;8.842;2024-02-21T05:55:16;100881.56;;;5.88;85.46
85895;BME280;76441;49.954;8.842;2024-02-21T05:57:42;100880.44;;;5.96;85.74
85895;BME280;76441;49.954;8.842;2024-02-21T06:00:07;100868.06;;;5.91;86.26
85895;BME280;76441;49.954;8.842;2024-02-21T06:02:33;100863.47;;;5.97;85.04
85895;BME280;76441;49.954;8.842;2024-02-21T06:04:58;100862.25;;;6.05;85.11
85895;BME280;76441;49.954;8.842;2024-02-21T06:07:23;100850.63;;;6.08;84.92
85895;BME280;76441;49.954;8.842;2024-02-21T06:09:48;100847.22;;;6.17;84.01
85895;BME280;76441;49.954;8.842;2024-02-21T06:12:14;100851.00;;;6.23;83.11
85895;BME280;76441;49.954;8.842;2024-02-21T06:14:39;100850.13;;;6.22;82.67
85895;BME280;76441;49.954;8.842;2024-02-21T06:17:04;100855.59;;;6.17;83.87
85895;BME280;76441;49.954;8.842;2024-02-21T06:19:30;100850.03;;;6.17;83.43
85895;BME280;76441;49.954;8.842;2024-02-21T06:21:55;100843.13;;;6.20;84.31
85895;BME280;76441;49.954;8.842;2024-02-21T06:24:20;100848.09;;;6.18;83.91
85895;BME280;76441;49.954;8.842;2024-02-21T06:26:46;100847.34;;;6.22;83.35
85895;BME280;76441;49.954;8.842;2024-02-21T06:29:11;100826.16;;;6.21;83.51
85895;BME280;76441;49.954;8.842;2024-02-21T06:31:36;100842.50;;;6.18;83.86
85895;BME280;76441;49.954;8.842;2024-02-21T06:34:02;100833.91;;;6.19;83.84
85895;BME280;76441;49.954;8.842;2024-02-21T06:36:27;100831.34;;;6.18;84.23
85895;BME280;76441;49.954;8.842;2024-02-21T06:38:53;100830.25;;;6.19;84.12
85895;BME280;76441;49.954;8.842;2024-02-21T06:41:18;100825.78;;;6.18;84.26
85895;BME280;76441;49.954;8.842;2024-02-21T06:43:45;100838.03;;;6.17;84.53
85895;BME280;76441;49.954;8.842;2024-02-21T06:46:11;100831.97;;;6.20;84.05
85895;BME280;76441;49.954;8.842;2024-02-21T06:48:36;100830.63;;;6.11;84.62
85895;BME280;76441;49.954;8.842;2024-02-21T06:51:02;100818.88;;;6.09;85.35
85895;BME280;76441;49.954;8.842;2024-02-21T06:53:28;100817.06;;;6.14;84.35
85895;BME280;76441;49.954;8.842;2024-02-21T06:55:53;100819.72;;;6.21;84.15
85895;BME280;76441;49.954;8.842;2024-02-21T06:58:19;100813.19;;;6.15;84.80
85895;BME280;76441;49.954;8.842;2024-02-21T07:00:44;100815.50;;;6.07;84.72
85895;BME280;76441;49.954;8.842;2024-02-21T07:03:09;100812.59;;;6.02;85.39
85895;BME280;76441;49.954;8.842;2024-02-21T07:05:34;100805.69;;;6.04;84.60
85895;BME280;76441;49.954;8.842;2024-02-21T07:08:00;100814.28;;;6.03;84.37
85895;BME280;76441;49.954;8.842;2024-02-21T07:10:25;100818.53;;;6.05;84.21
85895;BME280;76441;49.954;8.842;2024-02-21T07:12:50;100821.31;;;6.05;84.69
85895;BME280;76441;49.954;8.842;2024-02-21T07:15:17;100823.00;;;6.06;84.52
85895;BME280;76441;49.954;8.842;2024-02-21T07:17:45;100825.06;;;6.11;84.08
85895;BME280;76441;49.954;8.842;2024-02-21T07:20:10;100824.56;;;6.02;84.48
85895;BME280;76441;49.954;8.842;2024-02-21T07:22:36;100817.06;;;6.03;84.63
85895;BME280;76441;49.954;8.842;2024-02-21T07:25:01;100804.94;;;6.09;84.71
85895;BME280;76441;49.954;8.842;2024-02-21T07:27:26;100808.22;;;6.17;84.14
85895;BME280;76441;49.954;8.842;2024-02-21T07:29:55;100807.22;;;6.23;83.62
85895;BME280;76441;49.954;8.842;2024-02-21T07:32:21;100805.69;;;6.28;84.56
85895;BME280;76441;49.954;8.842;2024-02-21T07:34:46;100795.84;;;6.37;83.54
85895;BME280;76441;49.954;8.842;2024-02-21T07:37:11;100793.16;;;6.42;83.99
85895;BME280;76441;49.954;8.842;2024-02-21T07:39:36;100799.00;;;6.40;84.78
85895;BME280;76441;49.954;8.842;2024-02-21T07:42:02;100798.59;;;6.48;83.89
85895;BME280;76441;49.954;8.842;2024-02-21T07:44:28;100807.34;;;6.52;84.02
85895;BME280;76441;49.954;8.842;2024-02-21T07:46:53;100806.97;;;6.60;83.42
85895;BME280;76441;49.954;8.842;2024-02-21T07:49:18;100800.06;;;6.63;83.29
85895;BME280;76441;49.954;8.842;2024-02-21T07:51:43;100800.66;;;6.65;83.03
85895;BME280;76441;49.954;8.842;2024-02-21T07:54:09;100813.63;;;6.71;82.98
85895;BME280;76441;49.954;8.842;2024-02-21T07:56:34;100810.53;;;6.84;82.02
85895;BME280;76441;49.954;8.842;2024-02-21T07:58:59;100804.22;;;6.88;82.02
85895;BME280;76441;49.954;8.842;2024-02-21T08:01:25;100806.25;;;6.93;81.41
85895;BME280;76441;49.954;8.842;2024-02-21T08:03:53;100806.13;;;7.00;81.62
85895;BME280;76441;49.954;8.842;2024-02-21T08:06:18;100795.81;;;7.00;81.74
85895;BME280;76441;49.954;8.842;2024-02-21T08:08:44;100802.09;;;7.07;80.27
85895;BME280;76441;49.954;8.842;2024-02-21T08:11:09;100792.13;;;7.11;81.19
85895;BME280;76441;49.954;8.842;2024-02-21T08:13:34;100792.81;;;7.18;80.48
85895;BME280;76441;49.954;8.842;2024-02-21T08:16:00;100802.13;;;7.24;79.94
85895;BME280;76441;49.954;8.842;2024-02-21T08:18:25;100795.19;;;7.27;80.58
85895;BME280;76441;49.954;8.842;2024-02-21T08:20:50;100794.72;;;7.30;79.41
85895;BME280;76441;49.954;8.842;2024-02-21T08:23:16;100780.38;;;7.26;77.87
85895;BME280;76441;49.954;8.842;2024-02-21T08:25:41;100781.84;;;7.29;78.53
85895;BME280;76441;49.954;8.842;2024-02-21T08:28:06;100769.94;;;7.33;79.61
85895;BME280;76441;49.954;8.842;2024-02-21T08:30:33;100779.16;;;7.34;78.07
85895;BME280;76441;49.954;8.842;2024-02-21T08:32:58;100773.06;;;7.37;78.38
85895;BME280;76441;49.954;8.842;2024-02-21T08:35:23;100773.91;;;7.37;78.32
85895;BME280;76441;49.954;8.842;2024-02-21T08:37:49;100772.22;;;7.36;78.81
85895;BME280;76441;49.954;8.842;2024-02-21T08:40:14;100770.63;;;7.40;78.89
85895;BME280;76441;49.954;8.842;2024-02-21T08:42:43;100767.47;;;7.37;78.72
85895;BME280;76441;49.954;8.842;2024-02-21T08:45:09;100770.03;;;7.38;78.93
85895;BME280;76441;49.954;8.842;2024-02-21T08:47:34;100770.69;;;7.45;77.76
85895;BME280;76441;49.954;8.842;2024-02-21T08:50:01;100766.47;;;7.43;77.98
85895;BME280;76441;49.954;8.842;2024-02-21T08:52:26;100758.50;;;7.51;78.40
85895;BME280;76441;49.954;8.842;2024-02-21T08:54:52;100761.97;;;7.59;77.62
85895;BME280;76441;49.954;8.842;2024-02-21T08:57:19;100764.88;;;7.64;77.21
85895;BME280;76441;49.954;8.842;2024-02-21T08:59:45;100760.38;;;7.63;77.46
85895;BME280;76441;49.954;8.842;2024-02-21T09:02:10;100757.44;;;7.69;76.58
85895;BME280;76441;49.954;8.842;2024-02-21T09:04:35;100756.59;;;7.69;76.72
85895;BME280;76441;49.954;8.842;2024-02-21T09:07:00;100750.75;;;7.70;76.77
85895;BME280;76441;49.954;8.842;2024-02-21T09:09:26;100742.19;;;7.77;76.51
85895;BME280;76441;49.954;8.842;2024-02-21T09:11:53;100735.66;;;7.88;75.91
85895;BME280;76441;49.954;8.842;2024-02-21T09:14:18;100742.78;;;7.79;75.85
85895;BME280;76441;49.954;8.842;2024-02-21T09:16:43;100741.41;;;7.81;76.71
85895;BME280;76441;49.954;8.842;2024-02-21T09:19:09;100741.75;;;7.85;75.40
85895;BME280;76441;49.954;8.842;2024-02-21T09:21:37;100732.59;;;7.90;75.64
85895;BME280;76441;49.954;8.842;2024-02-21T09:24:02;100734.94;;;7.98;75.52
85895;BME280;76441;49.954;8.842;2024-02-21T09:26:28;100730.22;;;7.98;77.14
85895;BME280;76441;49.954;8.842;2024-02-21T09:28:53;100722.50;;;7.89;76.28
85895;BME280;76441;49.954;8.842;2024-02-21T09:31:19;100729.72;;;7.85;75.98
85895;BME280;76441;49.954;8.842;2024-02-21T09:33:44;100715.81;;;7.90;76.33
85895;BME280;76441;49.954;8.842;2024-02-21T09:36:10;100711.25;;;8.00;76.07
85895;BME280;76441;49.954;8.842;2024-02-21T09:38:36;100711.25;;;8.00;76.23
85895;BME280;76441;49.954;8.842;2024-02-21T09:41:14;100706.50;;;8.01;76.10
85895;BME280;76441;49.954;8.842;2024-02-21T09:43:41;100705.66;;;8.00;75.60
85895;BME280;76441;49.954;8.842;2024-02-21T09:46:07;100705.81;;;7.94;76.31
85895;BME280;76441;49.954;8.842;2024-02-21T09:51:20;100703.41;;;8.19;76.71
85895;BME280;76441;49.954;8.842;2024-02-21T09:53:47;100714.25;;;8.16;76.65
85895;BME280;76441;49.954;8.842;2024-02-21T09:56:13;100706.00;;;8.26;74.70
85895;BME280;76441;49.954;8.842;2024-02-21T09:58:39;100704.88;;;8.27;75.60
85895;BME280;76441;49.954;8.842;2024-02-21T10:01:06;100703.38;;;8.36;75.25
85895;BME280;76441;49.954;8.842;2024-02-21T10:03:32;100703.38;;;8.36;74.71
85895;BME280;76441;49.954;8.842;2024-02-21T10:05:58;100705.41;;;8.40;76.07
85895;BME280;76441;49.954;8.842;2024-02-21T10:08:26;100702.72;;;8.51;73.88
85895;BME280;76441;49.954;8.842;2024-02-21T10:10:51;100703.84;;;8.50;73.50
85895;BME280;76441;49.954;8.842;2024-02-21T10:13:26;100691.34;;;8.57;74.10
85895;BME280;76441;49.954;8.842;2024-02-21T10:16:08;100681.72;;;8.70;74.26
85895;BME280;76441;49.954;8.842;2024-02-21T10:18:34;100687.09;;;8.77;71.74
85895;BME280;76441;49.954;8.842;2024-02-21T10:21:03;100684.69;;;8.63;72.77
85895;BME280;76441;49.954;8.842;2024-02-21T10:23:29;100672.63;;;8.85;72.37
85895;BME280;76441;49.954;8.842;2024-02-21T10:26:04;100670.47;;;9.24;72.06
85895;BME280;76441;49.954;8.842;2024-02-21T10:28:30;100658.88;;;9.10;70.84
85895;BME280;76441;49.954;8.842;2024-02-21T10:30:55;100657.59;;;9.23;72.51
85895;BME280;76441;49.954;8.842;2024-02-21T10:33:20;100662.69;;;8.99;71.25
85895;BME280;76441;49.954;8.842;2024-02-21T10:35:46;100662.25;;;9.12;71.40
85895;BME280;76441;49.954;8.842;2024-02-21T10:38:11;100652.31;;;8.99;71.62
85895;BME280;76441;49.954;8.842;2024-02-21T10:40:37;100645.53;;;9.22;72.28
85895;BME280;76441;49.954;8.842;2024-02-21T10:43:02;100641.78;;;9.06;71.74
85895;BME280;76441;49.954;8.842;2024-02-21T10:45:32;100632.56;;;9.11;70.86
85895;BME280;76441;49.954;8.842;2024-02-21T10:48:08;100632.13;;;9.24;71.12
85895;BME280;76441;49.954;8.842;2024-02-21T10:51:03;100619.97;;;9.14;69.01
85895;BME280;76441;49.954;8.842;2024-02-21T10:56:30;100611.53;;;9.41;69.73
85895;BME280;76441;49.954;8.842;2024-02-21T10:59:00;100624.06;;;9.33;69.58
85895;BME280;76441;49.954;8.842;2024-02-21T11:01:26;100611.22;;;9.37;69.51
85895;BME280;76441;49.954;8.842;2024-02-21T11:03:56;100614.81;;;9.32;69.65
85895;BME280;76441;49.954;8.842;2024-02-21T11:06:22;100609.28;;;9.43;70.76
85895;BME280;76441;49.954;8.842;2024-02-21T11:09:05;100604.50;;;9.38;69.70
85895;BME280;76441;49.954;8.842;2024-02-21T11:11:35;100592.47;;;9.43;69.90
85895;BME280;76441;49.954;8.842;2024-02-21T11:14:18;100596.59;;;9.35;69.59
85895;BME280;76441;49.954;8.842;2024-02-21T11:16:43;100585.13;;;9.36;69.67
85895;BME280;76441;49.954;8.842;2024-02-21T11:19:22;100584.97;;;9.53;69.54
85895;BME280;76441;49.954;8.842;2024-02-21T11:21:48;100579.63;;;9.47;69.35
85895;BME280;76441;49.954;8.842;2024-02-21T11:24:13;100570.69;;;9.55;69.06
85895;BME280;76441;49.954;8.842;2024-02-21T11:26:40;100570.41;;;9.51;69.18
85895;BME280;76441;49.954;8.842;2024-02-21T11:29:07;100557.16;;;9.42;68.13
85895;BME280;76441;49.954;8.842;2024-02-21T11:31:44;100556.25;;;9.73;69.91
85895;BME280;76441;49.954;8.842;2024-02-21T11:34:11;100553.19;;;9.85;67.77
85895;BME280;76441;49.954;8.842;2024-02-21T11:36:49;100547.56;;;9.75;67.98
85895;BME280;76441;49.954;8.842;2024-02-21T11:39:23;100548.56;;;9.58;69.41
85895;BME280;76441;49.954;8.842;2024-02-21T11:42:06;100550.56;;;9.68;67.98
85895;BME280;76441;49.954;8.842;2024-02-21T11:44:35;100538.03;;;9.76;68.81
85895;BME280;76441;49.954;8.842;2024-02-21T11:47:05;100525.44;;;9.88;68.73
85895;BME280;76441;49.954;8.842;2024-02-21T11:49:36;100524.91;;;9.96;68.25
85895;BME280;76441;49.954;8.842;2024-02-21T11:52:03;100511.16;;;9.90;66.89
85895;BME280;76441;49.954;8.842;2024-02-21T11:54:32;100512.81;;;9.86;67.45
85895;BME280;76441;49.954;8.842;2024-02-21T11:56:58;100507.00;;;10.02;67.61
85895;BME280;76441;49.954;8.842;2024-02-21T11:59:24;100489.66;;;10.16;68.20
85895;BME280;76441;49.954;8.842;2024-02-21T12:01:49;100495.31;;;10.21;66.36
85895;BME280;76441;49.954;8.842;2024-02-21T12:04:17;100490.69;;;9.94;67.87
85895;BME280;76441;49.954;8.842;2024-02-21T12:06:46;100484.47;;;9.77;68.83
85895;BME280;76441;49.954;8.842;2024-02-21T12:09:15;100467.72;;;9.97;69.50
85895;BME280;76441;49.954;8.842;2024-02-21T12:11:41;100473.59;;;10.01;68.24
85895;BME280;76441;49.954;8.842;2024-02-21T12:14:06;100474.13;;;9.88;68.52
85895;BME280;76441;49.954;8.842;2024-02-21T12:16:33;100470.47;;;9.77;68.07
85895;BME280;76441;49.954;8.842;2024-02-21T12:18:59;100468.50;;;9.78;68.53
85895;BME280;76441;49.954;8.842;2024-02-21T12:21:30;100453.63;;;9.72;69.37
85895;BME280;76441;49.954;8.842;2024-02-21T12:23:57;100451.38;;;9.74;68.50
85895;BME280;76441;49.954;8.842;2024-02-21T12:26:23;100447.50;;;9.85;69.99
85895;BME280;76441;49.954;8.842;2024-02-21T12:28:48;100444.69;;;9.90;68.72
85895;BME280;76441;49.954;8.842;2024-02-21T12:31:13;100435.16;;;9.91;68.31
85895;BME280;76441;49.954;8.842;2024-02-21T12:33:39;100437.97;;;9.86;68.63
85895;BME280;76441;49.954;8.842;2024-02-21T12:36:05;100417.22;;;10.02;67.59
85895;BME280;76441;49.954;8.842;2024-02-21T12:38:30;100416.47;;;10.27;68.45
85895;BME280;76441;49.954;8.842;2024-02-21T12:40:56;100418.72;;;10.36;66.80
85895;BME280;76441;49.954;8.842;2024-02-21T12:43:22;100399.91;;;10.31;67.58
85895;BME280;76441;49.954;8.842;2024-02-21T12:45:48;100391.78;;;10.35;65.61
85895;BME280;76441;49.954;8.842;2024-02-21T12:48:14;100381.97;;;10.47;66.62
85895;BME280;76441;49.954;8.842;2024-02-21T12:50:40;100379.69;;;10.59;67.02
85895;BME280;76441;49.954;8.842;2024-02-21T12:53:05;100375.19;;;10.63;66.02
85895;BME280;76441;49.954;8.842;2024-02-21T12:55:31;100368.44;;;10.70;66.04
85895;BME280;76441;49.954;8.842;2024-02-21T12:57:56;100370.69;;;10.68;65.24
85895;BME280;76441;49.954;8.842;2024-02-21T13:00:22;100361.72;;;10.66;65.04